Montreal Mirabel, Quebec

8:43 AM EDT on November 01, 2014 (GMT -0400)
Montreal International (Mirabel) | Change Station
CLOSE
Current Station
Airport
Location: Montreal Mirabel,
Elevation: 269 ft
Nearby Weather Stations

Elev 269 ft 45.68 °N, 74.04 °W | Updated 43 minutes ago

Overcast
Overcast
37 °F
Feels Like 33 °F
N
6
Wind Variable Wind from NNE

Today is forecast to be nearly the same temperature as yesterday.

Today
High -- | Low -- °F
--% Chance of Precip.
Yesterday
High -- | Low -- °F
Precip. -- in
7:35 AM 5:42 PM
Waxing Gibbous, 66% visible
Pressure 30.14 in
Visibility 45.0 miles
Clouds Scattered Clouds 8000 ft
Overcast 13000 ft
Windchill 33 °F
Dew Point 27 °F
Humidity 65%
Rainfall 0.00 in
Snow Depth Not available.
UV 0 out of 12
Pollen Not available.
Air Quality Not available.
Flu Activity Not available.
METAR CYMX 011200Z 03005KT 340V070 45SM SCT080 OVC130 03/M03 A3012 RMK AC4AC4 SLP205

More Conditions Fewer Conditions

Pressure 30.14 in
Visibility 45.0 miles
Clouds Scattered Clouds 8000 ft
Overcast 13000 ft
Windchill 33 °F
Dew Point 27 °F
Humidity 65%
Rainfall 0.00 in
Snow Depth Not available.
UV 0 out of 12
Pollen Not available.
Air Quality Not available.
Flu Activity Not available.
METAR CYMX 011200Z 03005KT 340V070 45SM SCT080 OVC130 03/M03 A3012 RMK AC4AC4 SLP205

More Conditions Fewer Conditions

10-Day Weather Forecast

Almanac

Astronomy

Nov. 01, 2014 Rise Set
Actual Time
Civil Twilight
Nautical Twilight
Astronomical Twilight
Moon
Length of Visible Light
Length of Day
Tomorrow will be .
, % of the Moon is Illuminated

Today's Extremes

Country Highs Country Lows

Community

WunderPhotos

Upload Photos

1,766,915 photos uploaded!

WunderBlogs® & News

Nearby

Air Quality

  Air Quality AQ Index Pollutant
Not available.

Snow Depth

Station Depth Elevation

Earthquake Activity

City Distance Mag. Time & Date
Minimum magnitude displayed is 2.5.

Coastal Water Temperatures

Place Temperature

Nearby Weather Stations